createdAt,value
2023-01-06T00:01:38.830Z,95708.87
2023-01-06T00:04:07.558Z,95714.31
2023-01-06T00:06:36.219Z,95722.37
2023-01-06T00:09:06.292Z,95721.05
2023-01-06T00:11:35.234Z,95722.59
2023-01-06T00:14:04.245Z,95731.11
2023-01-06T00:16:32.850Z,95733.34
2023-01-06T00:19:02.046Z,95740.28
2023-01-06T00:21:31.753Z,95745.37
2023-01-06T00:24:00.545Z,95750.58
2023-01-06T00:26:29.065Z,95757.22
2023-01-06T00:28:58.595Z,95758.98
2023-01-06T00:31:27.495Z,95760.64
2023-01-06T00:33:59.642Z,95762.19
2023-01-06T00:36:28.211Z,95760.86
2023-01-06T00:38:56.872Z,95754.44
2023-01-06T00:41:43.231Z,95750.47
2023-01-06T00:44:11.893Z,95747.81
2023-01-06T00:46:40.577Z,95742.63
2023-01-06T00:49:09.482Z,95751.79
2023-01-06T00:51:40.805Z,95763.52
2023-01-06T00:54:11.710Z,95763.27
2023-01-06T00:56:42.152Z,95759.20
2023-01-06T00:59:12.965Z,95757.75
2023-01-06T01:01:43.057Z,95766.49
2023-01-06T01:04:17.252Z,95767.27
2023-01-06T01:06:47.280Z,95758.41
2023-01-06T01:09:18.557Z,95761.06
2023-01-06T01:12:06.920Z,95755.97
2023-01-06T01:14:37.154Z,95756.52
2023-01-06T01:17:06.611Z,95757.50
2023-01-06T01:19:41.229Z,95757.50
2023-01-06T01:22:10.713Z,95766.56
2023-01-06T01:24:40.181Z,95769.00
2023-01-06T01:27:09.609Z,95773.84
2023-01-06T01:29:43.992Z,95768.31
2023-01-06T01:32:16.122Z,95766.84
2023-01-06T01:34:44.830Z,95757.47
2023-01-06T01:37:13.661Z,95759.23
2023-01-06T01:39:42.411Z,95757.69
2023-01-06T01:42:17.501Z,95748.38
2023-01-06T01:45:10.201Z,95736.52
2023-01-06T01:47:46.129Z,95739.22
2023-01-06T01:50:31.454Z,95725.94
2023-01-06T01:53:05.821Z,95703.89
2023-01-06T01:55:37.116Z,95702.56
2023-01-06T01:58:14.340Z,95705.89
2023-01-06T02:00:45.563Z,95711.61
2023-01-06T02:03:17.342Z,95708.05
2023-01-06T02:05:48.873Z,95712.81
2023-01-06T02:11:24.206Z,95720.83
2023-01-06T02:16:56.373Z,95731.53
2023-01-06T02:19:55.324Z,95706.34
2023-01-06T02:23:06.871Z,95728.98
2023-01-06T02:26:10.101Z,95733.41
2023-01-06T02:29:19.113Z,95737.39
2023-01-06T02:32:08.793Z,95728.25
2023-01-06T02:34:41.989Z,95754.78
2023-01-06T02:37:16.691Z,95745.78
2023-01-06T02:40:12.197Z,95737.73
2023-01-06T02:43:06.157Z,95743.95
2023-01-06T02:46:00.475Z,95742.17
2023-01-06T02:48:41.313Z,95737.31
2023-01-06T03:00:46.848Z,95717.84
2023-01-06T03:03:19.005Z,95721.12
2023-01-06T03:05:50.854Z,95709.73
2023-01-06T03:08:22.419Z,95708.31
2023-01-06T03:10:52.053Z,95718.17
2023-01-06T03:13:47.714Z,95723.14
2023-01-06T03:16:17.383Z,95716.94
2023-01-06T03:18:48.729Z,95716.59
2023-01-06T03:21:24.842Z,95720.28
2023-01-06T03:23:54.496Z,95720.64
2023-01-06T03:26:25.194Z,95739.52
2023-01-06T03:28:53.871Z,95726.94
2023-01-06T03:31:27.198Z,95723.59
2023-01-06T03:34:04.264Z,95719.19
2023-01-06T03:36:58.550Z,95726.39
2023-01-06T03:39:35.329Z,95734.03
2023-01-06T03:42:48.078Z,95726.88
2023-01-06T03:46:31.899Z,95732.75
2023-01-06T03:48:29.140Z,95730.96
2023-01-06T03:51:12.703Z,95733.61
2023-01-06T03:54:04.199Z,95747.66
2023-01-06T03:56:35.832Z,95751.00
2023-01-06T03:59:14.437Z,95759.64
2023-01-06T04:01:44.342Z,95768.16
2023-01-06T04:04:13.660Z,95772.56
2023-01-06T04:06:42.659Z,95771.70
2023-01-06T04:09:13.841Z,95776.21
2023-01-06T04:12:18.052Z,95781.42
2023-01-06T04:14:46.761Z,95780.53
2023-01-06T04:17:15.323Z,95791.82
2023-01-06T04:19:44.081Z,95778.55
2023-01-06T04:22:12.715Z,95762.41
2023-01-06T04:24:41.253Z,95763.96
2023-01-06T04:27:10.063Z,95766.83
2023-01-06T04:29:38.837Z,95763.73
2023-01-06T04:32:07.541Z,95786.61
2023-01-06T04:34:36.145Z,95797.67
2023-01-06T04:37:04.847Z,95803.73
2023-01-06T04:39:33.618Z,95815.23
2023-01-06T04:42:02.233Z,95819.91
2023-01-06T04:44:30.954Z,95828.08
2023-01-06T04:46:59.757Z,95817.67
2023-01-06T04:49:28.708Z,95818.55
2023-01-06T04:51:57.503Z,95823.10
2023-01-06T04:54:26.180Z,95824.08
2023-01-06T04:56:54.895Z,95836.53
2023-01-06T04:59:23.667Z,95835.36
2023-01-06T05:01:52.392Z,95847.93
2023-01-06T05:04:21.475Z,95845.41
2023-01-06T05:06:50.230Z,95852.61
2023-01-06T05:09:18.871Z,95857.23
2023-01-06T05:11:47.471Z,95856.05
2023-01-06T05:14:19.500Z,95842.22
2023-01-06T05:16:48.098Z,95838.45
2023-01-06T05:19:16.722Z,95834.91
2023-01-06T05:21:45.508Z,95843.73
2023-01-06T05:24:17.763Z,95848.94
2023-01-06T05:26:46.351Z,95856.77
2023-01-06T05:29:17.667Z,95857.31
2023-01-06T05:31:46.549Z,95861.55
2023-01-06T05:34:15.282Z,95863.41
2023-01-06T05:36:43.935Z,95868.18
2023-01-06T05:39:13.381Z,95861.73
2023-01-06T05:41:55.166Z,95866.28
2023-01-06T05:44:24.651Z,95863.37
2023-01-06T05:46:53.424Z,95869.94
2023-01-06T05:49:21.978Z,95875.55
2023-01-06T05:51:50.696Z,95876.97
2023-01-06T05:54:19.356Z,95879.66
2023-01-06T05:56:47.964Z,95883.70
2023-01-06T05:59:16.737Z,95876.39
2023-01-06T06:01:45.598Z,95875.28
2023-01-06T06:04:14.535Z,95876.63
2023-01-06T06:06:43.119Z,95878.64
2023-01-06T06:09:11.922Z,95874.20
2023-01-06T06:11:40.533Z,95857.41
2023-01-06T06:14:11.035Z,95876.55
2023-01-06T06:16:40.015Z,95870.00
2023-01-06T06:19:08.656Z,95889.02
2023-01-06T06:21:37.773Z,95885.73
2023-01-06T06:24:06.686Z,95896.06
2023-01-06T06:26:35.310Z,95897.58
2023-01-06T06:29:05.720Z,95896.47
2023-01-06T06:31:34.754Z,95905.39
2023-01-06T06:34:05.010Z,95897.65
2023-01-06T06:36:33.747Z,95906.73
2023-01-06T06:39:02.603Z,95910.69
2023-01-06T06:41:31.336Z,95906.09
2023-01-06T06:44:01.573Z,95915.43
2023-01-06T06:46:30.320Z,95910.56
2023-01-06T06:48:59.139Z,95918.55
2023-01-06T06:51:31.823Z,95910.61
2023-01-06T06:54:00.555Z,95920.88
2023-01-06T06:56:29.524Z,95916.35
2023-01-06T06:59:00.811Z,95915.27
2023-01-06T07:01:31.402Z,95922.34
2023-01-06T07:04:00.154Z,95932.30
2023-01-06T07:06:55.281Z,95936.71
2023-01-06T07:12:34.349Z,95938.47
2023-01-06T07:15:06.846Z,95931.40
2023-01-06T07:54:03.819Z,95964.01
2023-01-06T08:00:10.252Z,95969.68
2023-01-06T08:39:48.702Z,95991.13
2023-01-06T08:46:04.766Z,95992.66
2023-01-06T08:48:35.544Z,95999.25
2023-01-06T08:51:09.568Z,95995.92
2023-01-06T08:53:39.817Z,95996.66
2023-01-06T08:56:23.288Z,95986.47
2023-01-06T09:11:58.613Z,95964.02
2023-01-06T09:32:11.545Z,95982.44
2023-01-06T09:34:42.474Z,95970.84
2023-01-06T09:37:11.342Z,95955.70
2023-01-06T09:39:41.957Z,95963.84
2023-01-06T09:42:25.270Z,95951.40
2023-01-06T09:58:30.764Z,95936.97
2023-01-06T10:01:02.985Z,95935.09
2023-01-06T10:03:32.851Z,95930.83
2023-01-06T10:06:38.539Z,95930.55
2023-01-06T10:09:42.263Z,95927.23
2023-01-06T10:12:39.920Z,95926.76
2023-01-06T10:15:21.093Z,95918.52
2023-01-06T10:21:34.411Z,95924.48
2023-01-06T10:34:32.874Z,95917.58
2023-01-06T10:37:07.576Z,95898.67
2023-01-06T10:43:18.688Z,95909.05
2023-01-06T10:45:50.480Z,95897.36
2023-01-06T10:48:21.913Z,95913.70
2023-01-06T10:50:52.127Z,95893.06
2023-01-06T10:53:21.042Z,95893.52
2023-01-06T10:55:52.836Z,95877.69
2023-01-06T10:58:36.664Z,95886.81
2023-01-06T11:01:16.088Z,95889.91
2023-01-06T11:03:49.070Z,95883.88
2023-01-06T11:06:21.040Z,95870.11
2023-01-06T11:08:50.235Z,95857.28
2023-01-06T11:18:22.433Z,95869.57
2023-01-06T11:21:14.628Z,95876.87
2023-01-06T11:23:47.448Z,95866.19
2023-01-06T11:26:29.663Z,95863.53
2023-01-06T11:29:04.660Z,95855.92
2023-01-06T11:31:51.230Z,95859.19
2023-01-06T11:34:09.431Z,95854.89
2023-01-06T11:36:41.337Z,95855.95
2023-01-06T11:50:31.151Z,95856.16
2023-01-06T11:55:44.054Z,95862.33
2023-01-06T12:14:48.186Z,95889.38
2023-01-06T12:17:41.441Z,95890.66
2023-01-06T12:27:28.721Z,95885.31
2023-01-06T12:33:35.740Z,95886.41
2023-01-06T12:36:12.809Z,95876.41
2023-01-06T12:38:58.932Z,95880.18
2023-01-06T12:45:29.018Z,95889.55
2023-01-06T12:55:14.959Z,95905.73
2023-01-06T13:02:00.252Z,95901.84
2023-01-06T13:04:38.331Z,95900.59
2023-01-06T13:07:26.468Z,95890.68
2023-01-06T13:10:13.156Z,95894.01
2023-01-06T13:13:06.266Z,95902.20
2023-01-06T13:15:38.434Z,95902.63
2023-01-06T13:18:31.386Z,95909.31
2023-01-06T13:21:12.148Z,95925.14
2023-01-06T13:23:50.117Z,95934.03
2023-01-06T13:26:44.640Z,95936.23
2023-01-06T13:29:39.205Z,95931.95
2023-01-06T13:32:40.114Z,95931.39
2023-01-06T13:35:26.753Z,95934.72
2023-01-06T13:38:30.269Z,95935.22
2023-01-06T13:41:04.723Z,95940.56
2023-01-06T13:43:36.517Z,95938.11
2023-01-06T13:46:13.961Z,95947.08
2023-01-06T13:48:48.443Z,95951.16
2023-01-06T13:51:20.701Z,95948.63
2023-01-06T13:53:54.304Z,95950.75
2023-01-06T13:56:25.667Z,95956.75
2023-01-06T13:59:13.993Z,95957.20
2023-01-06T14:01:43.048Z,95960.99
2023-01-06T14:04:31.649Z,95957.13
2023-01-06T14:07:01.958Z,95953.59
2023-01-06T14:09:32.089Z,95965.68
2023-01-06T14:12:09.435Z,95962.47
2023-01-06T14:14:39.801Z,95972.33
2023-01-06T14:17:10.184Z,95967.45
2023-01-06T14:19:40.582Z,95969.68
2023-01-06T14:22:22.011Z,95953.09
2023-01-06T14:24:54.065Z,95968.14
2023-01-06T14:27:48.303Z,95972.03
2023-01-06T14:40:11.199Z,95963.39
2023-01-06T14:42:42.957Z,95972.15
2023-01-06T14:45:16.918Z,95960.42
2023-01-06T14:47:50.532Z,95969.95
2023-01-06T14:50:45.569Z,95969.70
2023-01-06T14:53:06.459Z,95968.83
2023-01-06T14:55:38.523Z,95966.27
2023-01-06T14:58:07.248Z,95967.29
2023-01-06T15:00:36.062Z,95956.31
2023-01-06T15:03:06.226Z,95961.17
2023-01-06T15:08:51.760Z,95955.09
2023-01-06T15:11:30.559Z,95953.98
2023-01-06T15:13:59.442Z,95962.86
2023-01-06T15:16:37.350Z,95966.63
2023-01-06T15:19:14.278Z,95968.38
2023-01-06T15:25:26.145Z,95971.50
2023-01-06T16:08:33.050Z,96028.77
2023-01-06T16:11:46.415Z,96032.25
2023-01-06T16:14:38.213Z,96028.25
2023-01-06T18:17:31.280Z,96059.44
2023-01-06T20:07:29.654Z,96083.22
2023-01-06T20:28:57.181Z,96091.78
2023-01-06T20:31:29.471Z,96089.93
2023-01-06T20:34:06.976Z,96092.16
2023-01-06T20:36:56.266Z,96097.23
2023-01-06T20:39:36.845Z,96096.83
2023-01-06T20:49:33.853Z,96098.13
2023-01-06T21:45:24.360Z,96104.88
2023-01-06T21:48:13.500Z,96101.38
2023-01-06T21:51:08.516Z,96100.05
2023-01-06T22:00:31.089Z,96106.78
2023-01-06T22:03:09.262Z,96107.33
2023-01-06T22:05:52.440Z,96097.75
2023-01-06T22:08:19.265Z,96099.84
2023-01-06T22:11:01.665Z,96100.89
2023-01-06T22:13:34.878Z,96095.90
2023-01-06T22:16:18.940Z,96092.27
2023-01-06T22:19:08.088Z,96089.52
2023-01-06T22:27:47.506Z,96097.33
2023-01-06T22:31:04.891Z,96091.66
2023-01-06T22:36:26.563Z,96093.88
2023-01-06T22:38:58.067Z,96092.09
2023-01-06T22:41:26.464Z,96095.76
2023-01-06T22:43:55.448Z,96098.38
2023-01-06T22:46:24.186Z,96108.09
2023-01-06T22:49:02.010Z,96108.09
2023-01-06T22:52:00.626Z,96108.94
2023-01-06T23:01:01.373Z,96103.61
2023-01-06T23:06:08.510Z,96100.24
2023-01-06T23:08:51.012Z,96100.24
2023-01-06T23:11:45.364Z,96090.30
2023-01-06T23:14:12.055Z,96090.30
2023-01-06T23:16:35.003Z,96087.39
2023-01-06T23:19:11.801Z,96087.39
2023-01-06T23:21:49.186Z,96084.85
2023-01-06T23:24:39.927Z,96081.92
2023-01-06T23:27:16.848Z,96080.45
2023-01-06T23:29:48.881Z,96075.97
2023-01-06T23:32:24.003Z,96068.13
2023-01-06T23:34:56.284Z,96069.68
2023-01-06T23:37:30.883Z,96074.31
2023-01-06T23:40:00.120Z,96073.63
2023-01-06T23:42:34.397Z,96075.42
2023-01-06T23:45:02.730Z,96079.73
2023-01-06T23:47:34.816Z,96079.91
2023-01-06T23:50:17.634Z,96077.34
2023-01-06T23:52:51.944Z,96079.13
2023-01-06T23:55:23.604Z,96073.84
2023-01-06T23:57:55.977Z,96078.95
